x

Eel River - 17nm Wsw Of Eureka, Ca (46022) Wave Buoy

5:50am - Tue 16th Sep 2014 All times are PDT. -7 hours from GMT.

  • Sig Wave height 3.0ft
  • Swell Direction
  • Peak Period 16s
  • Average Period 8s
  • Wind
    9mph, 13mph gusts
  • Sea Temp 56°f
  • Air Temp 58°f
  • Sea Pressure 1012.8mb
  • Eel River - 17nm Wsw Of Eureka, Ca
  • Eel River - 17nm Wsw Of Eureka, Ca

More Historic Weather Station data

Upgrade to MSW Pro to gain access to the past 30 days of data for over 8000 Wavebouys and Weather Stations around the globe.

Join Pro

Comparision Forecast

View Surf forecast
   
Tue 09/16 5:50am 3ft 16s 8s 9 13 mph 1012.8mb 56f 58f
4:50am 2.5ft 16s 7s 7 9 mph 1012.9mb 56f 57f
3:50am 3ft 21s 8s 7 9 mph 1013.2mb 56f 57f
2:50am 3ft 16s 7s 7
mph
1013.5mb 56f 57f
1:50am 3.5ft 21s 7s 4 7 mph 1013.7mb 56f 57f
12:50am 3.5ft 21s 8s 4 7 mph 1013.6mb 56f 58f
Mon 09/15 11:50pm 3.5ft 21s 9s 2
mph
1013.8mb 56f 57f
10:50pm 3ft 21s 7s 2 4 mph 1013.5mb 56f 58f
9:50pm 3.5ft 21s 9s 2
mph
1013.4mb 56f 58f
8:50pm 3ft 21s 8s 2
mph
1013.1mb 56f 57f
7:50pm 2.5ft 17s 6s 4
mph
1012.3mb 56f 57f
6:50pm 2.5ft 21s 6s 4 7 mph 1012.5mb 56f 57f
5:50pm 3ft 21s 6s 7
mph
1012.7mb 56f 57f
4:50pm 2.5ft 17s 5s 4 9 mph 1013mb 56f 58f
3:50pm 2.5ft 21s 5s 7 9 mph 1013.3mb 56f 58f
2:50pm 3ft 21s 5s 7 9 mph 1013.2mb 55f 58f
1:50pm 3.5ft 21s 7s 9 11 mph 1013.3mb 55f 57f
12:50pm 3ft 21s 5s 13 16 mph 1013mb 55f 57f
11:50am 2.5ft 17s 5s 13 16 mph 1013.1mb 55f 56f
10:50am 2.5ft 19s 7s 13 16 mph 1012.6mb 55f 56f
9:50am 2.5ft 14s 6s 11 13 mph 1012.4mb 55f 56f
8:50am 2.5ft 21s 7s 9 11 mph 1012mb 55f 56f
7:50am 2.5ft 19s 7s 9 11 mph 1011.8mb 54f 55f
6:50am 2.5ft 21s 7s 11 16 mph 1011.4mb 54f 55f
5:50am 2.5ft 19s 7s 11 13 mph 1011.1mb 55f 54f
4:50am 2.5ft 21s 7s 4 9 mph 1010.9mb 55f 55f
3:50am 3ft 21s 7s 7 9 mph 1011.3mb 54f 55f
2:50am 2.5ft 7s 7s 7 9 mph 1011.2mb 54f 54f
1:50am 2.5ft 8s 7s 9 11 mph 1011.7mb 53f 54f
12:50am 2.5ft 7s 7s 7 9 mph 1011.3mb 54f 54f
Sun 09/14 11:50pm 2.5ft 8s 7s 4 7 mph 1011.3mb 54f 53f
10:50pm 2.5ft 8s 7s 4 7 mph 1011.3mb 54f 53f
9:50pm 3ft 7s 7s 7 11 mph 1010.6mb 54f 53f
8:50pm 2.5ft 8s 7s 4 9 mph 1010.3mb 54f 53f
7:50pm 2.5ft 8s 6s 7
mph
1010.2mb 54f 53f
6:50pm 2.5ft 8s 6s 2 7 mph 1010.2mb 54f 53f
5:50pm 3ft 7s 6s 4 7 mph 1010.4mb 55f 53f
4:50pm 3.5ft 8s 7s 4 7 mph 1010.4mb 55f 53f
3:50pm 3.5ft 8s 7s 2 4 mph 1010.7mb 56f 54f
2:50pm 3ft 8s 7s 7
mph
1010.8mb 55f 54f
1:50pm 2.5ft 7s 7s 7 9 mph 1011.1mb 55f 54f
12:50pm 3.5ft 8s 7s 9 11 mph 1011.1mb 55f 54f
11:50am 3ft 8s 7s 7 9 mph 1011.2mb 55f 54f
10:50am 3ft 7s 7s 4
mph
1011.2mb 55f 53f
9:50am 3ft 8s 6s 2 4 mph 1011.1mb 55f 52f
8:50am 3.5ft 7s 7s 4 7 mph 1011mb 55f 51f
7:50am 3.5ft 8s 7s  -  2 mph 1010.4mb 55f 51f
6:50am 3.5ft 8s 7s  -  2 mph 1010mb 56f 51f
5:50am 3.5ft 8s 7s  -  2 mph 1009.7mb 56f 51f
4:50am 3.5ft 7s 7s  -  2 mph 1009.6mb 55f 52f
3:50am 3.5ft 7s 7s 7 9 mph 1009.1mb 55f 52f
2:50am 3ft 7s 7s 7 9 mph 1008.9mb 55f 52f
1:50am 3.5ft 8s 7s 7 9 mph 1008.9mb 55f 52f
12:50am 3ft 7s 7s 7 9 mph 1009.2mb 55f 52f
Sat 09/13 11:50pm 3ft 7s 7s 4 7 mph 1009.4mb 55f 52f
10:50pm 3.5ft 7s 7s 7
mph
1009.6mb 55f 53f
9:50pm 3.5ft 8s 7s 4
mph
1009.6mb 55f 53f
8:50pm 3.5ft 7s 7s 2 4 mph 1009.6mb 56f 52f
7:50pm 3.5ft 7s 7s 4 7 mph 1009.4mb 56f 52f
6:50pm 3.5ft 14s 7s 4 7 mph 1009.6mb 56f 53f
5:50pm 3ft 10s 7s 2
mph
1010mb 56f 53f
4:50pm 3ft 7s 7s 2 4 mph 1010.2mb 56f 52f
3:50pm 3ft 10s 6s 2 4 mph 1010.5mb 56f 52f
2:50pm 3ft 11s 7s 4 7 mph 1010.6mb 56f 52f
1:50pm 3.5ft 7s 7s 4 7 mph 1010.8mb 57f 51f
12:50pm 3ft 7s 7s 4
mph
1011mb 56f 51f
11:50am 3.5ft 8s 7s 2 4 mph 1011.3mb 55f 51f
10:50am 3.5ft 11s 7s 2
mph
1011.3mb 54f 51f
9:50am 3.5ft 8s 7s 4
mph
1011.2mb 54f 51f
8:50am 3.5ft 11s 7s 4 7 mph 1010.7mb 54f 51f
7:50am 3.5ft 11s 7s 9 11 mph 1010.2mb 54f 51f
6:50am 3.5ft 11s 7s 7 9 mph 1009.9mb 55f 52f
5:50am 3.5ft 11s 7s 9 11 mph 1009.7mb 55f 51f
4:50am 3.5ft 11s 7s 7 9 mph 1009.6mb 55f 51f
3:50am 4ft 8s 7s 7 9 mph 1010mb 55f 50f
2:50am 3.5ft 11s 7s 7 9 mph 1010.4mb 55f 50f
1:50am 4ft 8s 7s 4
mph
1010.7mb 55f 51f
12:50am 3.5ft 7s 7s 4 7 mph 1010.7mb 55f 51f
Fri 09/12 11:50pm 3.5ft 8s 7s 2
mph
1010.9mb 56f 51f
10:50pm 4ft 11s 7s  -  2 mph 1010.9mb 57f 51f
9:50pm 4ft 11s 7s 2 4 mph 1010.9mb 57f 51f
8:50pm 4.5ft 15s 7s 2 4 mph 1011.1mb 57f 51f
7:50pm 4ft 11s 7s 7 9 mph 1010.9mb 57f 52f
6:50pm 3.5ft 8s 7s 7 9 mph 1010.9mb 57f 52f
5:50pm 4ft 11s 7s 7 9 mph 1011.2mb 55f 53f
4:50pm 4ft 11s 6s 4 7 mph 1011.5mb 55f 53f
3:50pm 4.5ft 8s 7s 7 9 mph 1011.6mb 55f 53f
2:50pm 4.5ft 8s 6s 9 11 mph 1012mb 54f 53f